sensor_id;sensor_type;location;lat;lon;timestamp;temperature;humidity
12568;DHT22;6349;50.904;6.136;2023-03-14T00:00:15;11.50;99.90
12568;DHT22;6349;50.904;6.136;2023-03-14T00:02:17;11.50;99.90
12568;DHT22;6349;50.904;6.136;2023-03-14T00:04:18;11.40;99.90
12568;DHT22;6349;50.904;6.136;2023-03-14T00:06:19;11.40;99.90
12568;DHT22;6349;50.904;6.136;2023-03-14T00:08:20;11.40;99.90
12568;DHT22;6349;50.904;6.136;2023-03-14T00:10:21;11.40;99.90
12568;DHT22;6349;50.904;6.136;2023-03-14T00:12:23;11.30;99.90
12568;DHT22;6349;50.904;6.136;2023-03-14T00:14:24;11.20;99.90
12568;DHT22;6349;50.904;6.136;2023-03-14T00:16:26;11.00;99.90
12568;DHT22;6349;50.904;6.136;2023-03-14T00:18:28;10.80;99.90
12568;DHT22;6349;50.904;6.136;2023-03-14T00:20:28;10.70;99.90
12568;DHT22;6349;50.904;6.136;2023-03-14T00:22:31;10.60;99.90
12568;DHT22;6349;50.904;6.136;2023-03-14T00:24:31;10.60;99.90
12568;DHT22;6349;50.904;6.136;2023-03-14T00:26:32;10.50;99.90
12568;DHT22;6349;50.904;6.136;2023-03-14T00:28:33;10.40;99.90
12568;DHT22;6349;50.904;6.136;2023-03-14T00:30:37;10.40;99.90
12568;DHT22;6349;50.904;6.136;2023-03-14T00:32:37;10.30;99.90
12568;DHT22;6349;50.904;6.136;2023-03-14T00:34:39;10.30;99.90
12568;DHT22;6349;50.904;6.136;2023-03-14T00:36:40;10.30;99.90
12568;DHT22;6349;50.904;6.136;2023-03-14T00:38:43;10.20;99.90
12568;DHT22;6349;50.904;6.136;2023-03-14T00:40:45;10.10;99.90
12568;DHT22;6349;50.904;6.136;2023-03-14T00:42:47;10.10;99.90
12568;DHT22;6349;50.904;6.136;2023-03-14T00:44:48;10.10;99.90
12568;DHT22;6349;50.904;6.136;2023-03-14T00:46:50;10.10;99.90
12568;DHT22;6349;50.904;6.136;2023-03-14T00:48:51;10.00;99.90
12568;DHT22;6349;50.904;6.136;2023-03-14T00:50:52;10.00;99.90
12568;DHT22;6349;50.904;6.136;2023-03-14T00:52:54;10.00;99.90
12568;DHT22;6349;50.904;6.136;2023-03-14T00:54:56;9.90;99.90
12568;DHT22;6349;50.904;6.136;2023-03-14T00:56:56;9.90;99.90
12568;DHT22;6349;50.904;6.136;2023-03-14T00:58:58;9.90;99.90
12568;DHT22;6349;50.904;6.136;2023-03-14T01:01:06;9.90;99.90
12568;DHT22;6349;50.904;6.136;2023-03-14T01:03:09;10.00;99.90
12568;DHT22;6349;50.904;6.136;2023-03-14T01:05:11;9.90;99.90
12568;DHT22;6349;50.904;6.136;2023-03-14T01:07:12;10.00;99.90
12568;DHT22;6349;50.904;6.136;2023-03-14T01:09:13;10.10;99.90
12568;DHT22;6349;50.904;6.136;2023-03-14T01:11:18;10.10;99.90
12568;DHT22;6349;50.904;6.136;2023-03-14T01:13:19;10.00;99.90
12568;DHT22;6349;50.904;6.136;2023-03-14T01:15:21;10.00;99.90
12568;DHT22;6349;50.904;6.136;2023-03-14T01:17:22;10.00;99.90
12568;DHT22;6349;50.904;6.136;2023-03-14T01:19:23;10.10;99.90
12568;DHT22;6349;50.904;6.136;2023-03-14T01:21:27;10.10;99.90
12568;DHT22;6349;50.904;6.136;2023-03-14T01:23:28;10.00;99.90
12568;DHT22;6349;50.904;6.136;2023-03-14T01:25:29;10.00;99.90
12568;DHT22;6349;50.904;6.136;2023-03-14T01:27:30;10.00;99.90
12568;DHT22;6349;50.904;6.136;2023-03-14T01:29:32;10.00;99.90
12568;DHT22;6349;50.904;6.136;2023-03-14T01:31:33;9.90;99.90
12568;DHT22;6349;50.904;6.136;2023-03-14T01:33:33;9.90;99.90
12568;DHT22;6349;50.904;6.136;2023-03-14T01:35:35;9.80;99.90
12568;DHT22;6349;50.904;6.136;2023-03-14T01:37:37;9.70;99.90
12568;DHT22;6349;50.904;6.136;2023-03-14T01:39:39;9.60;99.90
12568;DHT22;6349;50.904;6.136;2023-03-14T01:41:40;9.60;99.90
12568;DHT22;6349;50.904;6.136;2023-03-14T01:43:41;9.60;99.90
12568;DHT22;6349;50.904;6.136;2023-03-14T01:48:19;9.60;99.90
12568;DHT22;6349;50.904;6.136;2023-03-14T01:50:20;9.60;99.90
12568;DHT22;6349;50.904;6.136;2023-03-14T01:52:29;9.60;99.90
12568;DHT22;6349;50.904;6.136;2023-03-14T01:54:37;9.60;99.90
12568;DHT22;6349;50.904;6.136;2023-03-14T01:56:42;9.60;99.90
12568;DHT22;6349;50.904;6.136;2023-03-14T01:58:47;9.60;99.90
12568;DHT22;6349;50.904;6.136;2023-03-14T02:00:50;9.60;99.90
12568;DHT22;6349;50.904;6.136;2023-03-14T02:02:56;9.70;99.90
12568;DHT22;6349;50.904;6.136;2023-03-14T02:04:59;9.70;99.90
12568;DHT22;6349;50.904;6.136;2023-03-14T02:07:15;9.70;99.90
12568;DHT22;6349;50.904;6.136;2023-03-14T02:09:18;9.70;99.90
12568;DHT22;6349;50.904;6.136;2023-03-14T02:11:20;9.70;99.90
12568;DHT22;6349;50.904;6.136;2023-03-14T02:13:23;9.70;99.90
12568;DHT22;6349;50.904;6.136;2023-03-14T02:15:25;9.70;99.90
12568;DHT22;6349;50.904;6.136;2023-03-14T02:17:27;9.80;99.90
12568;DHT22;6349;50.904;6.136;2023-03-14T02:20:10;9.70;99.90
12568;DHT22;6349;50.904;6.136;2023-03-14T02:22:12;9.70;99.90
12568;DHT22;6349;50.904;6.136;2023-03-14T02:24:27;9.70;99.90
12568;DHT22;6349;50.904;6.136;2023-03-14T02:26:38;9.70;99.90
12568;DHT22;6349;50.904;6.136;2023-03-14T02:28:41;9.70;99.90
12568;DHT22;6349;50.904;6.136;2023-03-14T02:30:42;9.70;99.90
12568;DHT22;6349;50.904;6.136;2023-03-14T02:32:47;9.70;99.90
12568;DHT22;6349;50.904;6.136;2023-03-14T02:34:52;9.70;99.90
12568;DHT22;6349;50.904;6.136;2023-03-14T02:36:55;9.70;99.90
12568;DHT22;6349;50.904;6.136;2023-03-14T02:39:19;9.70;99.90
12568;DHT22;6349;50.904;6.136;2023-03-14T02:41:23;9.80;99.90
12568;DHT22;6349;50.904;6.136;2023-03-14T02:43:25;9.80;99.90
12568;DHT22;6349;50.904;6.136;2023-03-14T02:45:47;9.80;99.90
12568;DHT22;6349;50.904;6.136;2023-03-14T02:47:53;9.80;99.90
12568;DHT22;6349;50.904;6.136;2023-03-14T02:50:04;9.70;99.90
12568;DHT22;6349;50.904;6.136;2023-03-14T02:52:06;9.70;99.90
12568;DHT22;6349;50.904;6.136;2023-03-14T02:54:08;9.80;99.90
12568;DHT22;6349;50.904;6.136;2023-03-14T02:56:11;9.80;99.90
12568;DHT22;6349;50.904;6.136;2023-03-14T02:58:13;9.80;99.90
12568;DHT22;6349;50.904;6.136;2023-03-14T03:00:15;9.80;99.90
12568;DHT22;6349;50.904;6.136;2023-03-14T03:02:16;9.90;99.90
12568;DHT22;6349;50.904;6.136;2023-03-14T03:04:18;9.80;99.90
12568;DHT22;6349;50.904;6.136;2023-03-14T03:06:20;9.90;99.90
12568;DHT22;6349;50.904;6.136;2023-03-14T03:08:23;9.80;99.90
12568;DHT22;6349;50.904;6.136;2023-03-14T03:10:25;9.80;99.90
12568;DHT22;6349;50.904;6.136;2023-03-14T03:12:26;9.70;99.90
12568;DHT22;6349;50.904;6.136;2023-03-14T03:14:27;9.60;99.90
12568;DHT22;6349;50.904;6.136;2023-03-14T03:16:29;9.70;99.90
12568;DHT22;6349;50.904;6.136;2023-03-14T03:18:34;9.60;99.90
12568;DHT22;6349;50.904;6.136;2023-03-14T03:20:35;9.60;99.90
12568;DHT22;6349;50.904;6.136;2023-03-14T03:22:37;9.60;99.90
12568;DHT22;6349;50.904;6.136;2023-03-14T03:24:41;9.60;99.90
12568;DHT22;6349;50.904;6.136;2023-03-14T03:26:42;9.60;99.90
12568;DHT22;6349;50.904;6.136;2023-03-14T03:28:44;9.50;99.90
12568;DHT22;6349;50.904;6.136;2023-03-14T03:30:44;9.50;99.90
12568;DHT22;6349;50.904;6.136;2023-03-14T03:32:45;9.50;99.90
12568;DHT22;6349;50.904;6.136;2023-03-14T03:34:48;9.50;99.90
12568;DHT22;6349;50.904;6.136;2023-03-14T03:36:48;9.50;99.90
12568;DHT22;6349;50.904;6.136;2023-03-14T03:38:50;9.50;99.90
12568;DHT22;6349;50.904;6.136;2023-03-14T03:40:51;9.40;99.90
12568;DHT22;6349;50.904;6.136;2023-03-14T03:42:52;9.50;99.90
12568;DHT22;6349;50.904;6.136;2023-03-14T03:44:53;9.50;99.90
12568;DHT22;6349;50.904;6.136;2023-03-14T03:46:54;9.50;99.90
12568;DHT22;6349;50.904;6.136;2023-03-14T03:48:57;9.50;99.90
12568;DHT22;6349;50.904;6.136;2023-03-14T03:50:57;9.40;99.90
12568;DHT22;6349;50.904;6.136;2023-03-14T03:53:00;9.40;99.90
12568;DHT22;6349;50.904;6.136;2023-03-14T03:55:01;9.40;99.90
12568;DHT22;6349;50.904;6.136;2023-03-14T03:57:02;9.40;99.90
12568;DHT22;6349;50.904;6.136;2023-03-14T03:59:04;9.40;99.90
12568;DHT22;6349;50.904;6.136;2023-03-14T04:01:06;9.50;99.90
12568;DHT22;6349;50.904;6.136;2023-03-14T04:03:08;9.40;99.90
12568;DHT22;6349;50.904;6.136;2023-03-14T04:05:09;9.40;99.90
12568;DHT22;6349;50.904;6.136;2023-03-14T04:07:11;9.40;99.90
12568;DHT22;6349;50.904;6.136;2023-03-14T04:09:14;9.40;99.90
12568;DHT22;6349;50.904;6.136;2023-03-14T04:11:15;9.40;99.90
12568;DHT22;6349;50.904;6.136;2023-03-14T04:13:17;9.40;99.90
12568;DHT22;6349;50.904;6.136;2023-03-14T04:15:18;9.40;99.90
12568;DHT22;6349;50.904;6.136;2023-03-14T04:17:20;9.40;99.90
12568;DHT22;6349;50.904;6.136;2023-03-14T04:19:22;9.40;99.90
12568;DHT22;6349;50.904;6.136;2023-03-14T04:21:23;9.40;99.90
12568;DHT22;6349;50.904;6.136;2023-03-14T04:23:25;9.40;99.90
12568;DHT22;6349;50.904;6.136;2023-03-14T04:25:26;9.40;99.90
12568;DHT22;6349;50.904;6.136;2023-03-14T04:27:27;9.40;99.90
12568;DHT22;6349;50.904;6.136;2023-03-14T04:29:29;9.40;99.90
12568;DHT22;6349;50.904;6.136;2023-03-14T04:31:30;9.40;99.90
12568;DHT22;6349;50.904;6.136;2023-03-14T04:33:31;9.40;99.90
12568;DHT22;6349;50.904;6.136;2023-03-14T04:35:33;9.40;99.90
12568;DHT22;6349;50.904;6.136;2023-03-14T04:37:35;9.40;99.90
12568;DHT22;6349;50.904;6.136;2023-03-14T04:39:36;9.50;99.90
12568;DHT22;6349;50.904;6.136;2023-03-14T04:41:36;9.50;99.90
12568;DHT22;6349;50.904;6.136;2023-03-14T04:43:37;9.60;99.90
12568;DHT22;6349;50.904;6.136;2023-03-14T04:45:42;9.60;99.90
12568;DHT22;6349;50.904;6.136;2023-03-14T04:47:44;9.50;99.90
12568;DHT22;6349;50.904;6.136;2023-03-14T04:49:44;9.50;99.90
12568;DHT22;6349;50.904;6.136;2023-03-14T04:51:45;9.50;99.90
12568;DHT22;6349;50.904;6.136;2023-03-14T04:53:47;9.50;99.90
12568;DHT22;6349;50.904;6.136;2023-03-14T04:55:50;9.50;99.90
12568;DHT22;6349;50.904;6.136;2023-03-14T04:57:52;9.50;99.90
12568;DHT22;6349;50.904;6.136;2023-03-14T04:59:53;9.50;99.90
12568;DHT22;6349;50.904;6.136;2023-03-14T05:01:57;9.40;99.90
12568;DHT22;6349;50.904;6.136;2023-03-14T05:03:57;9.40;99.90
12568;DHT22;6349;50.904;6.136;2023-03-14T05:06:06;9.40;99.90
12568;DHT22;6349;50.904;6.136;2023-03-14T05:08:06;9.40;99.90
12568;DHT22;6349;50.904;6.136;2023-03-14T05:10:09;9.50;99.90
12568;DHT22;6349;50.904;6.136;2023-03-14T05:12:11;9.40;99.90
12568;DHT22;6349;50.904;6.136;2023-03-14T05:14:13;9.30;99.90
12568;DHT22;6349;50.904;6.136;2023-03-14T05:16:14;9.40;99.90
12568;DHT22;6349;50.904;6.136;2023-03-14T05:18:17;9.40;99.90
12568;DHT22;6349;50.904;6.136;2023-03-14T05:20:17;9.40;99.90
12568;DHT22;6349;50.904;6.136;2023-03-14T05:22:18;9.40;99.90
12568;DHT22;6349;50.904;6.136;2023-03-14T05:24:20;9.40;99.90
12568;DHT22;6349;50.904;6.136;2023-03-14T05:26:20;9.40;99.90
12568;DHT22;6349;50.904;6.136;2023-03-14T05:28:22;9.40;99.90
12568;DHT22;6349;50.904;6.136;2023-03-14T05:30:24;9.30;99.90
12568;DHT22;6349;50.904;6.136;2023-03-14T05:32:26;9.40;99.90
12568;DHT22;6349;50.904;6.136;2023-03-14T05:34:27;9.30;99.90
12568;DHT22;6349;50.904;6.136;2023-03-14T05:36:29;9.30;99.90
12568;DHT22;6349;50.904;6.136;2023-03-14T05:38:30;9.30;99.90
12568;DHT22;6349;50.904;6.136;2023-03-14T05:40:31;9.30;99.90
12568;DHT22;6349;50.904;6.136;2023-03-14T05:42:36;9.30;99.90
12568;DHT22;6349;50.904;6.136;2023-03-14T05:44:38;9.20;99.90
12568;DHT22;6349;50.904;6.136;2023-03-14T05:46:39;9.30;99.90
12568;DHT22;6349;50.904;6.136;2023-03-14T05:48:41;9.20;99.90
12568;DHT22;6349;50.904;6.136;2023-03-14T05:50:43;9.30;99.90
12568;DHT22;6349;50.904;6.136;2023-03-14T05:52:43;9.30;99.90
12568;DHT22;6349;50.904;6.136;2023-03-14T05:54:44;9.30;99.90
12568;DHT22;6349;50.904;6.136;2023-03-14T05:56:45;9.40;99.90
12568;DHT22;6349;50.904;6.136;2023-03-14T05:58:45;9.30;99.90
12568;DHT22;6349;50.904;6.136;2023-03-14T06:00:48;9.40;99.90
12568;DHT22;6349;50.904;6.136;2023-03-14T06:02:49;9.40;99.90
12568;DHT22;6349;50.904;6.136;2023-03-14T06:04:50;9.40;99.90
12568;DHT22;6349;50.904;6.136;2023-03-14T06:06:50;9.40;99.90
12568;DHT22;6349;50.904;6.136;2023-03-14T06:08:52;9.40;99.90
12568;DHT22;6349;50.904;6.136;2023-03-14T06:10:53;9.40;99.90
12568;DHT22;6349;50.904;6.136;2023-03-14T06:12:54;9.40;99.90
12568;DHT22;6349;50.904;6.136;2023-03-14T06:14:55;9.40;99.90
12568;DHT22;6349;50.904;6.136;2023-03-14T06:16:56;9.40;99.90
12568;DHT22;6349;50.904;6.136;2023-03-14T06:19:00;9.40;99.90
12568;DHT22;6349;50.904;6.136;2023-03-14T06:21:01;9.40;99.90
12568;DHT22;6349;50.904;6.136;2023-03-14T06:23:02;9.50;99.90
12568;DHT22;6349;50.904;6.136;2023-03-14T06:25:04;9.60;99.90
12568;DHT22;6349;50.904;6.136;2023-03-14T06:27:06;9.50;99.90
12568;DHT22;6349;50.904;6.136;2023-03-14T06:29:07;9.60;99.90
12568;DHT22;6349;50.904;6.136;2023-03-14T06:31:09;9.50;99.90
12568;DHT22;6349;50.904;6.136;2023-03-14T06:33:12;9.60;99.90
12568;DHT22;6349;50.904;6.136;2023-03-14T06:35:13;9.60;99.90
12568;DHT22;6349;50.904;6.136;2023-03-14T06:37:14;9.60;99.90
12568;DHT22;6349;50.904;6.136;2023-03-14T06:39:14;9.60;99.90
12568;DHT22;6349;50.904;6.136;2023-03-14T06:41:15;9.60;99.90
12568;DHT22;6349;50.904;6.136;2023-03-14T06:43:17;9.60;99.90
12568;DHT22;6349;50.904;6.136;2023-03-14T06:45:19;9.60;99.90
12568;DHT22;6349;50.904;6.136;2023-03-14T06:47:20;9.60;99.90
12568;DHT22;6349;50.904;6.136;2023-03-14T06:49:22;9.70;99.90
12568;DHT22;6349;50.904;6.136;2023-03-14T06:51:23;9.70;99.90
12568;DHT22;6349;50.904;6.136;2023-03-14T06:53:24;9.70;99.90
12568;DHT22;6349;50.904;6.136;2023-03-14T06:55:25;9.80;99.90
12568;DHT22;6349;50.904;6.136;2023-03-14T06:57:26;9.80;99.90
12568;DHT22;6349;50.904;6.136;2023-03-14T06:59:28;9.80;99.90
12568;DHT22;6349;50.904;6.136;2023-03-14T07:01:30;9.80;99.90
12568;DHT22;6349;50.904;6.136;2023-03-14T07:03:33;9.70;99.90
12568;DHT22;6349;50.904;6.136;2023-03-14T07:05:35;9.80;99.90
12568;DHT22;6349;50.904;6.136;2023-03-14T07:07:36;9.90;99.90
12568;DHT22;6349;50.904;6.136;2023-03-14T07:09:37;9.80;99.90
12568;DHT22;6349;50.904;6.136;2023-03-14T07:11:39;9.90;99.90
12568;DHT22;6349;50.904;6.136;2023-03-14T07:13:41;9.90;99.90
12568;DHT22;6349;50.904;6.136;2023-03-14T07:15:42;9.90;99.90
12568;DHT22;6349;50.904;6.136;2023-03-14T07:17:42;9.90;99.90
12568;DHT22;6349;50.904;6.136;2023-03-14T07:19:44;9.90;99.90
12568;DHT22;6349;50.904;6.136;2023-03-14T07:21:45;9.90;99.90
12568;DHT22;6349;50.904;6.136;2023-03-14T07:23:46;10.00;99.90
12568;DHT22;6349;50.904;6.136;2023-03-14T07:25:48;9.90;99.90
12568;DHT22;6349;50.904;6.136;2023-03-14T07:27:49;9.90;99.90
12568;DHT22;6349;50.904;6.136;2023-03-14T07:29:51;9.90;99.90
12568;DHT22;6349;50.904;6.136;2023-03-14T07:31:53;10.00;99.90
12568;DHT22;6349;50.904;6.136;2023-03-14T07:33:54;10.00;99.90
12568;DHT22;6349;50.904;6.136;2023-03-14T07:35:56;10.00;99.90
12568;DHT22;6349;50.904;6.136;2023-03-14T07:37:57;10.00;99.90
12568;DHT22;6349;50.904;6.136;2023-03-14T07:39:59;10.00;99.90
12568;DHT22;6349;50.904;6.136;2023-03-14T07:42:01;10.00;99.90
12568;DHT22;6349;50.904;6.136;2023-03-14T07:44:01;10.10;99.90
12568;DHT22;6349;50.904;6.136;2023-03-14T07:46:03;10.10;99.90
12568;DHT22;6349;50.904;6.136;2023-03-14T07:48:07;10.10;99.90
12568;DHT22;6349;50.904;6.136;2023-03-14T07:50:10;10.10;99.90
12568;DHT22;6349;50.904;6.136;2023-03-14T07:52:11;10.10;99.90
12568;DHT22;6349;50.904;6.136;2023-03-14T07:54:13;10.10;99.90
12568;DHT22;6349;50.904;6.136;2023-03-14T07:56:14;10.10;99.90
12568;DHT22;6349;50.904;6.136;2023-03-14T07:58:16;10.10;99.90
12568;DHT22;6349;50.904;6.136;2023-03-14T08:00:17;10.20;99.90
12568;DHT22;6349;50.904;6.136;2023-03-14T08:02:20;10.20;99.90
12568;DHT22;6349;50.904;6.136;2023-03-14T08:04:23;10.10;99.90
12568;DHT22;6349;50.904;6.136;2023-03-14T08:06:25;10.30;99.90
12568;DHT22;6349;50.904;6.136;2023-03-14T08:08:26;10.30;99.90
12568;DHT22;6349;50.904;6.136;2023-03-14T08:10:26;10.30;99.90
12568;DHT22;6349;50.904;6.136;2023-03-14T08:12:29;10.40;99.90
12568;DHT22;6349;50.904;6.136;2023-03-14T08:14:31;10.30;99.90
12568;DHT22;6349;50.904;6.136;2023-03-14T08:16:32;10.30;99.90
12568;DHT22;6349;50.904;6.136;2023-03-14T08:18:34;10.30;99.90
12568;DHT22;6349;50.904;6.136;2023-03-14T08:20:36;10.30;99.90
12568;DHT22;6349;50.904;6.136;2023-03-14T08:22:38;10.30;99.90
12568;DHT22;6349;50.904;6.136;2023-03-14T08:24:39;10.20;99.90
12568;DHT22;6349;50.904;6.136;2023-03-14T08:26:40;10.30;99.90
12568;DHT22;6349;50.904;6.136;2023-03-14T08:28:42;10.20;99.90
12568;DHT22;6349;50.904;6.136;2023-03-14T08:30:44;10.30;99.90
12568;DHT22;6349;50.904;6.136;2023-03-14T08:32:44;10.30;99.90
12568;DHT22;6349;50.904;6.136;2023-03-14T08:34:46;10.30;99.90
12568;DHT22;6349;50.904;6.136;2023-03-14T08:36:46;10.30;99.90
12568;DHT22;6349;50.904;6.136;2023-03-14T08:38:48;10.30;99.90
12568;DHT22;6349;50.904;6.136;2023-03-14T08:40:50;10.30;99.90
12568;DHT22;6349;50.904;6.136;2023-03-14T08:42:55;10.50;99.90
12568;DHT22;6349;50.904;6.136;2023-03-14T08:44:55;10.40;99.90
12568;DHT22;6349;50.904;6.136;2023-03-14T08:46:56;10.50;99.90
12568;DHT22;6349;50.904;6.136;2023-03-14T08:48:58;10.50;99.90
12568;DHT22;6349;50.904;6.136;2023-03-14T08:51:14;10.50;99.90
12568;DHT22;6349;50.904;6.136;2023-03-14T08:53:15;10.40;99.90
12568;DHT22;6349;50.904;6.136;2023-03-14T08:55:15;10.10;99.90
12568;DHT22;6349;50.904;6.136;2023-03-14T08:57:16;9.90;99.90
12568;DHT22;6349;50.904;6.136;2023-03-14T08:59:18;9.60;99.90
12568;DHT22;6349;50.904;6.136;2023-03-14T09:01:20;9.50;99.90
12568;DHT22;6349;50.904;6.136;2023-03-14T09:03:25;9.40;99.90
12568;DHT22;6349;50.904;6.136;2023-03-14T09:05:27;9.20;99.90
12568;DHT22;6349;50.904;6.136;2023-03-14T09:07:29;9.10;99.90
12568;DHT22;6349;50.904;6.136;2023-03-14T09:09:30;9.10;99.90
12568;DHT22;6349;50.904;6.136;2023-03-14T09:11:31;9.00;99.90
12568;DHT22;6349;50.904;6.136;2023-03-14T09:13:31;8.90;99.90
12568;DHT22;6349;50.904;6.136;2023-03-14T09:15:32;8.90;99.90
12568;DHT22;6349;50.904;6.136;2023-03-14T09:17:33;8.80;99.90
12568;DHT22;6349;50.904;6.136;2023-03-14T09:19:35;8.80;99.90
12568;DHT22;6349;50.904;6.136;2023-03-14T09:21:36;8.80;99.90
12568;DHT22;6349;50.904;6.136;2023-03-14T09:24:07;8.70;99.90
12568;DHT22;6349;50.904;6.136;2023-03-14T09:26:34;8.70;99.90
12568;DHT22;6349;50.904;6.136;2023-03-14T09:29:14;8.60;99.90
12568;DHT22;6349;50.904;6.136;2023-03-14T09:31:15;8.60;99.90
12568;DHT22;6349;50.904;6.136;2023-03-14T09:33:16;8.50;99.90
12568;DHT22;6349;50.904;6.136;2023-03-14T09:35:17;8.40;99.90
12568;DHT22;6349;50.904;6.136;2023-03-14T09:37:17;8.40;99.90
12568;DHT22;6349;50.904;6.136;2023-03-14T09:39:21;8.40;99.90
12568;DHT22;6349;50.904;6.136;2023-03-14T09:41:29;8.40;99.90
12568;DHT22;6349;50.904;6.136;2023-03-14T09:43:34;8.50;99.90
12568;DHT22;6349;50.904;6.136;2023-03-14T09:45:48;8.50;99.90
12568;DHT22;6349;50.904;6.136;2023-03-14T09:47:49;8.60;99.90
12568;DHT22;6349;50.904;6.136;2023-03-14T09:49:55;8.50;99.90
12568;DHT22;6349;50.904;6.136;2023-03-14T09:51:59;8.60;99.90
12568;DHT22;6349;50.904;6.136;2023-03-14T09:54:02;8.60;99.90
12568;DHT22;6349;50.904;6.136;2023-03-14T09:56:10;8.50;99.90
12568;DHT22;6349;50.904;6.136;2023-03-14T09:58:19;8.60;99.90
12568;DHT22;6349;50.904;6.136;2023-03-14T10:00:25;8.60;99.90
12568;DHT22;6349;50.904;6.136;2023-03-14T10:02:33;8.70;99.90
12568;DHT22;6349;50.904;6.136;2023-03-14T10:04:34;8.70;99.90
12568;DHT22;6349;50.904;6.136;2023-03-14T10:06:36;8.70;99.90
12568;DHT22;6349;50.904;6.136;2023-03-14T10:08:40;8.60;99.90
12568;DHT22;6349;50.904;6.136;2023-03-14T10:10:42;8.60;99.90
12568;DHT22;6349;50.904;6.136;2023-03-14T10:12:59;8.60;99.90
12568;DHT22;6349;50.904;6.136;2023-03-14T10:15:07;8.60;99.90
12568;DHT22;6349;50.904;6.136;2023-03-14T10:17:12;8.60;99.90
12568;DHT22;6349;50.904;6.136;2023-03-14T10:19:16;8.60;99.90
12568;DHT22;6349;50.904;6.136;2023-03-14T10:21:29;8.70;99.90
12568;DHT22;6349;50.904;6.136;2023-03-14T10:23:33;8.70;99.90
12568;DHT22;6349;50.904;6.136;2023-03-14T10:25:39;8.70;99.90
12568;DHT22;6349;50.904;6.136;2023-03-14T10:27:40;8.80;99.90
12568;DHT22;6349;50.904;6.136;2023-03-14T10:29:53;8.70;99.90
12568;DHT22;6349;50.904;6.136;2023-03-14T10:32:02;8.70;99.90
12568;DHT22;6349;50.904;6.136;2023-03-14T10:34:04;8.70;99.90
12568;DHT22;6349;50.904;6.136;2023-03-14T10:36:21;8.70;99.90
12568;DHT22;6349;50.904;6.136;2023-03-14T10:38:31;8.60;99.90
12568;DHT22;6349;50.904;6.136;2023-03-14T10:40:34;8.60;99.90
12568;DHT22;6349;50.904;6.136;2023-03-14T10:42:41;8.60;99.90
12568;DHT22;6349;50.904;6.136;2023-03-14T10:44:51;8.60;99.90
12568;DHT22;6349;50.904;6.136;2023-03-14T10:47:00;8.60;99.90
12568;DHT22;6349;50.904;6.136;2023-03-14T10:49:05;8.70;99.90
12568;DHT22;6349;50.904;6.136;2023-03-14T10:53:50;8.70;99.90
12568;DHT22;6349;50.904;6.136;2023-03-14T10:55:55;8.90;99.90
12568;DHT22;6349;50.904;6.136;2023-03-14T10:57:58;8.80;99.90
12568;DHT22;6349;50.904;6.136;2023-03-14T10:59:59;8.80;99.90
12568;DHT22;6349;50.904;6.136;2023-03-14T11:02:15;8.80;99.90
12568;DHT22;6349;50.904;6.136;2023-03-14T11:07:31;8.80;99.90
12568;DHT22;6349;50.904;6.136;2023-03-14T11:12:13;8.80;99.90
12568;DHT22;6349;50.904;6.136;2023-03-14T11:14:33;8.80;99.90
12568;DHT22;6349;50.904;6.136;2023-03-14T11:17:02;8.90;99.90
12568;DHT22;6349;50.904;6.136;2023-03-14T11:19:31;8.90;99.90
12568;DHT22;6349;50.904;6.136;2023-03-14T11:28:49;8.90;99.90
12568;DHT22;6349;50.904;6.136;2023-03-14T11:30:54;8.80;99.90
12568;DHT22;6349;50.904;6.136;2023-03-14T11:35:19;8.60;99.90
12568;DHT22;6349;50.904;6.136;2023-03-14T11:37:29;8.30;99.90
12568;DHT22;6349;50.904;6.136;2023-03-14T11:39:39;8.00;99.90
12568;DHT22;6349;50.904;6.136;2023-03-14T11:41:47;7.80;99.90
12568;DHT22;6349;50.904;6.136;2023-03-14T11:43:54;7.70;99.90
12568;DHT22;6349;50.904;6.136;2023-03-14T11:46:01;7.50;99.90
12568;DHT22;6349;50.904;6.136;2023-03-14T11:48:22;7.50;99.90
12568;DHT22;6349;50.904;6.136;2023-03-14T11:50:28;7.50;99.90
12568;DHT22;6349;50.904;6.136;2023-03-14T11:52:33;7.50;99.90
12568;DHT22;6349;50.904;6.136;2023-03-14T11:54:48;7.60;99.90
12568;DHT22;6349;50.904;6.136;2023-03-14T11:56:55;7.60;99.90
12568;DHT22;6349;50.904;6.136;2023-03-14T11:59:01;7.60;99.90
12568;DHT22;6349;50.904;6.136;2023-03-14T12:01:09;7.60;99.90
12568;DHT22;6349;50.904;6.136;2023-03-14T12:03:21;7.60;99.90
12568;DHT22;6349;50.904;6.136;2023-03-14T12:10:05;7.60;99.90
12568;DHT22;6349;50.904;6.136;2023-03-14T12:12:06;7.60;99.90
12568;DHT22;6349;50.904;6.136;2023-03-14T12:14:32;7.60;99.90
12568;DHT22;6349;50.904;6.136;2023-03-14T12:16:36;7.70;99.90
12568;DHT22;6349;50.904;6.136;2023-03-14T12:18:39;7.70;99.90
12568;DHT22;6349;50.904;6.136;2023-03-14T12:20:51;7.70;99.90
12568;DHT22;6349;50.904;6.136;2023-03-14T12:22:55;7.60;99.90
12568;DHT22;6349;50.904;6.136;2023-03-14T12:25:04;7.60;99.90
12568;DHT22;6349;50.904;6.136;2023-03-14T12:27:06;7.60;99.90
12568;DHT22;6349;50.904;6.136;2023-03-14T12:31:37;7.60;99.90
12568;DHT22;6349;50.904;6.136;2023-03-14T12:33:39;7.70;99.90
12568;DHT22;6349;50.904;6.136;2023-03-14T12:35:44;7.70;99.90
12568;DHT22;6349;50.904;6.136;2023-03-14T12:37:47;7.70;99.90
12568;DHT22;6349;50.904;6.136;2023-03-14T12:40:01;7.70;99.90
12568;DHT22;6349;50.904;6.136;2023-03-14T12:42:12;7.80;99.90
12568;DHT22;6349;50.904;6.136;2023-03-14T12:44:38;7.90;99.90
12568;DHT22;6349;50.904;6.136;2023-03-14T12:46:43;7.80;99.90
12568;DHT22;6349;50.904;6.136;2023-03-14T12:49:05;7.90;99.90
12568;DHT22;6349;50.904;6.136;2023-03-14T12:51:36;7.90;99.90
12568;DHT22;6349;50.904;6.136;2023-03-14T12:54:17;7.90;99.90
12568;DHT22;6349;50.904;6.136;2023-03-14T12:58:37;7.90;99.90
12568;DHT22;6349;50.904;6.136;2023-03-14T13:00:39;7.90;99.90
12568;DHT22;6349;50.904;6.136;2023-03-14T13:02:42;7.90;99.90
12568;DHT22;6349;50.904;6.136;2023-03-14T13:04:48;7.80;99.90
12568;DHT22;6349;50.904;6.136;2023-03-14T13:06:56;7.80;99.90
12568;DHT22;6349;50.904;6.136;2023-03-14T13:09:34;7.90;99.90
12568;DHT22;6349;50.904;6.136;2023-03-14T13:11:35;7.90;99.90
12568;DHT22;6349;50.904;6.136;2023-03-14T13:13:41;8.00;99.90
12568;DHT22;6349;50.904;6.136;2023-03-14T13:15:45;8.00;99.90
12568;DHT22;6349;50.904;6.136;2023-03-14T13:17:48;7.90;99.90
12568;DHT22;6349;50.904;6.136;2023-03-14T13:19:52;7.90;99.90
12568;DHT22;6349;50.904;6.136;2023-03-14T13:22:01;7.70;99.90
12568;DHT22;6349;50.904;6.136;2023-03-14T13:24:06;7.50;99.90
12568;DHT22;6349;50.904;6.136;2023-03-14T13:26:14;7.40;99.90
12568;DHT22;6349;50.904;6.136;2023-03-14T13:28:16;7.20;99.90
12568;DHT22;6349;50.904;6.136;2023-03-14T13:30:20;7.20;99.90
12568;DHT22;6349;50.904;6.136;2023-03-14T13:32:26;7.10;99.90
12568;DHT22;6349;50.904;6.136;2023-03-14T13:34:32;7.00;99.90
12568;DHT22;6349;50.904;6.136;2023-03-14T13:36:35;7.00;99.90
12568;DHT22;6349;50.904;6.136;2023-03-14T13:38:36;6.90;99.90
12568;DHT22;6349;50.904;6.136;2023-03-14T13:40:37;7.00;99.90
12568;DHT22;6349;50.904;6.136;2023-03-14T13:42:38;7.00;99.90
12568;DHT22;6349;50.904;6.136;2023-03-14T13:44:39;7.00;99.90
12568;DHT22;6349;50.904;6.136;2023-03-14T13:46:40;7.00;99.90
12568;DHT22;6349;50.904;6.136;2023-03-14T13:48:47;7.10;99.90
12568;DHT22;6349;50.904;6.136;2023-03-14T13:50:52;7.10;99.90
12568;DHT22;6349;50.904;6.136;2023-03-14T13:52:55;7.10;99.90
12568;DHT22;6349;50.904;6.136;2023-03-14T13:54:59;7.10;99.90